Time;durP1;ratioP1;P1;durP2;ratioP2;P2;SDS_P1;SDS_P2;PMS_P1;PMS_P2;Temp;Humidity;BMP_temperature;BMP_pressure;BME280_temperature;BME280_humidity;BME280_pressure;Samples;Min_cycle;Max_cycle;Signal;HPM_P1;HPM_P2
2023/04/28 16:30:32;;;;;;;5.45;1.10;;;;;;;22.66;48.22;101329.50;5105254;27;20964;-50
2023/04/28 16:33:00;;;;;;;3.78;0.95;;;;;;;23.39;46.32;101326.81;5071770;28;20101;-51
2023/04/28 16:35:27;;;;;;;4.18;1.27;;;;;;;23.98;44.65;101325.41;5089529;28;20039;-49
2023/04/28 16:37:55;;;;;;;4.43;1.08;;;;;;;24.40;43.97;101334.00;5088320;28;20055;-50
2023/04/28 16:40:22;;;;;;;3.65;1.00;;;;;;;24.67;43.08;101327.44;5089648;28;20633;-49
2023/04/28 16:42:49;;;;;;;5.95;1.20;;;;;;;24.86;42.70;101339.13;5088293;28;20051;-52
2023/04/28 16:45:17;;;;;;;1.67;0.90;;;;;;;24.97;42.12;101337.56;5089557;28;20025;-51
2023/04/28 16:47:45;;;;;;;4.50;1.02;;;;;;;25.07;42.00;101354.31;5088680;28;20032;-49
2023/04/28 16:50:13;;;;;;;7.07;1.17;;;;;;;25.15;41.79;101354.44;5089434;28;20024;-50
2023/04/28 16:52:41;;;;;;;2.70;1.10;;;;;;;25.18;41.50;101357.97;5088908;28;20077;-52
2023/04/28 16:55:09;;;;;;;2.88;0.80;;;;;;;25.26;41.66;101376.47;5071198;28;20035;-50
2023/04/28 16:57:36;;;;;;;7.68;1.05;;;;;;;25.28;41.30;101373.84;5088667;28;20024;-48
2023/04/28 17:00:05;;;;;;;2.88;0.98;;;;;;;25.28;41.31;101377.38;5089596;28;20029;-51
2023/04/28 17:02:33;;;;;;;6.00;1.15;;;;;;;25.27;41.55;101372.97;5071554;28;20103;-50
2023/04/28 17:05:01;;;;;;;1.95;1.02;;;;;;;25.32;41.36;101384.41;5089884;28;20032;-48
2023/04/28 17:07:28;;;;;;;5.97;1.23;;;;;;;25.32;41.35;101384.41;5089413;28;20047;-53
2023/04/28 17:09:55;;;;;;;1.77;0.90;;;;;;;25.34;41.26;101381.84;5089670;28;20031;-48
2023/04/28 17:12:23;;;;;;;4.93;1.25;;;;;;;25.35;41.22;101386.22;5089073;28;20115;-50
2023/04/28 17:14:51;;;;;;;2.95;0.80;;;;;;;25.30;41.26;101386.16;5089357;28;20385;-50
2023/04/28 17:17:20;;;;;;;0.80;0.70;;;;;;;25.28;41.69;101393.13;5089671;28;20036;-50
2023/04/28 17:19:48;;;;;;;2.75;0.95;;;;;;;25.33;41.28;101391.44;5088908;28;20381;-48
2023/04/28 17:22:17;;;;;;;1.90;0.93;;;;;;;25.36;41.08;101388.00;5089479;28;20085;-48
2023/04/28 17:24:45;;;;;;;3.60;0.80;;;;;;;25.37;40.93;101381.88;5089481;28;20020;-48
2023/04/28 17:27:14;;;;;;;3.13;0.73;;;;;;;25.39;40.89;101382.78;5089152;28;20025;-52
2023/04/28 17:29:43;;;;;;;3.67;1.10;;;;;;;25.37;40.86;101381.88;5088687;28;20565;-47
2023/04/28 17:32:12;;;;;;;2.58;0.70;;;;;;;25.38;41.08;101381.00;5089814;28;20137;-49
2023/04/28 17:34:40;;;;;;;2.92;0.80;;;;;;;25.33;41.36;101380.94;5089122;28;20351;-48
2023/04/28 17:37:09;;;;;;;1.55;0.98;;;;;;;25.32;41.72;101383.53;5089461;28;20028;-49
2023/04/28 17:39:38;;;;;;;3.25;0.88;;;;;;;25.32;41.61;101373.91;5088177;28;20374;-48
2023/04/28 17:42:06;;;;;;;2.95;1.00;;;;;;;25.37;41.70;101381.88;5075345;28;20028;-48
2023/04/28 17:44:35;;;;;;;2.22;0.90;;;;;;;25.37;41.50;101371.38;5075164;28;20119;-48
2023/04/28 17:47:04;;;;;;;1.58;0.88;;;;;;;25.33;41.89;101377.44;5075480;28;20028;-48
2023/04/28 17:49:32;;;;;;;5.90;1.48;;;;;;;25.26;41.70;101365.06;5075750;28;20373;-48
2023/04/28 17:52:01;;;;;;;13.93;6.15;;;;;;;25.32;41.93;101378.28;5058038;28;20036;-48
2023/04/28 17:54:31;;;;;;;19.48;8.20;;;;;;;25.32;42.21;101376.53;5075593;28;20093;-49
2023/04/28 17:57:01;;;;;;;31.48;14.20;;;;;;;25.34;42.35;101377.44;5074866;28;20126;-51
2023/04/28 17:59:29;;;;;;;37.13;17.88;;;;;;;25.32;42.27;101363.41;5075194;28;20512;-49
2023/04/28 18:01:58;;;;;;;50.67;23.35;;;;;;;25.33;42.71;101362.53;5075294;28;20028;-51
2023/04/28 18:04:28;;;;;;;56.45;25.45;;;;;;;25.34;42.42;101372.19;5074853;28;20025;-49
2023/04/28 18:06:57;;;;;;;61.80;28.00;;;;;;;25.31;42.63;101360.78;5074869;28;20107;-51
2023/04/28 18:09:25;;;;;;;83.25;36.30;;;;;;;25.30;43.26;101380.91;5074687;28;20032;-49
2023/04/28 18:11:55;;;;;;;76.93;33.08;;;;;;;25.30;43.14;101374.75;5075096;28;20390;-49
2023/04/28 18:14:24;;;;;;;67.70;25.48;;;;;;;25.32;43.05;101375.66;5057030;28;20381;-50
2023/04/28 18:16:53;;;;;;;58.72;25.15;;;;;;;25.31;43.27;101360.78;5074982;28;20028;-49
2023/04/28 18:19:22;;;;;;;45.90;18.40;;;;;;;25.33;43.00;101375.69;5075127;28;20373;-49
2023/04/28 18:21:50;;;;;;;33.95;15.10;;;;;;;25.30;43.59;101374.75;5074318;28;20028;-50
2023/04/28 18:24:19;;;;;;;30.35;13.52;;;;;;;25.36;43.53;101366.97;5074939;28;20020;-49
2023/04/28 18:26:48;;;;;;;33.13;14.52;;;;;;;25.32;43.46;101368.66;5074414;28;20040;-50
2023/04/28 18:29:17;;;;;;;32.65;13.57;;;;;;;25.30;43.52;101373.03;5074042;28;20082;-49
2023/04/28 18:31:46;;;;;;;35.33;13.70;;;;;;;25.33;43.57;101366.94;5075144;28;20021;-53
2023/04/28 18:34:14;;;;;;;33.95;13.52;;;;;;;25.38;43.33;101367.88;5074554;28;20028;-50
2023/04/28 18:36:43;;;;;;;31.83;12.57;;;;;;;25.37;43.30;101381.88;5073810;28;20024;-49
2023/04/28 18:39:12;;;;;;;36.08;13.38;;;;;;;25.41;43.49;101378.41;5074541;28;20052;-49
2023/04/28 18:41:40;;;;;;;31.98;12.68;;;;;;;25.39;43.69;101384.50;5074359;28;20103;-50
2023/04/28 18:44:09;;;;;;;30.80;11.88;;;;;;;25.42;43.83;101382.84;5074722;28;20039;-53
2023/04/28 18:46:38;;;;;;;27.75;11.10;;;;;;;25.41;43.48;101388.03;5075038;28;20024;-49
2023/04/28 18:49:07;;;;;;;27.27;10.00;;;;;;;25.39;43.95;101395.91;5056553;28;20109;-49
2023/04/28 18:51:37;;;;;;;30.10;10.38;;;;;;;25.39;44.38;101397.63;5073430;28;20458;-48
2023/04/28 18:54:06;;;;;;;27.55;10.18;;;;;;;25.43;44.05;101394.25;5056591;28;20032;-48
2023/04/28 18:56:34;;;;;;;25.38;9.82;;;;;;;25.44;43.98;101398.63;5074116;28;20028;-48
2023/04/28 18:59:04;;;;;;;21.17;8.25;;;;;;;25.43;44.22;101402.13;5056077;28;20111;-49
2023/04/28 19:01:33;;;;;;;23.00;8.93;;;;;;;25.43;43.79;101399.50;5074140;28;20029;-49
2023/04/28 19:04:02;;;;;;;26.13;8.55;;;;;;;25.44;43.80;101396.88;5073525;28;20099;-49
2023/04/28 19:06:30;;;;;;;22.35;8.27;;;;;;;25.42;43.60;101395.09;5056017;28;20385;-49
2023/04/28 19:08:59;;;;;;;19.08;8.20;;;;;;;25.41;43.79;101419.56;5056436;28;20556;-51
2023/04/28 19:11:27;;;;;;;21.73;7.88;;;;;;;25.44;43.63;101424.91;5073337;23;20442;-48
2023/04/28 19:13:56;;;;;;;18.20;7.07;;;;;;;25.45;43.31;101417.03;5013979;28;20479;-48
2023/04/28 19:16:25;;;;;;;20.35;9.68;;;;;;;25.49;43.61;101431.06;5014015;28;20037;-50
2023/04/28 19:18:53;;;;;;;80.10;36.75;;;;;;;25.58;43.35;101443.47;5014148;28;20040;-49
2023/04/28 19:21:23;;;;;;;147.13;80.85;;;;;;;25.55;43.40;101433.81;5013960;28;20022;-47
2023/04/28 19:23:52;;;;;;;162.30;90.95;;;;;;;25.57;43.43;101434.72;4996467;28;20385;-49
2023/04/28 19:26:20;;;;;;;181.05;105.35;;;;;;;25.59;43.26;101439.97;5013897;28;20457;-49
2023/04/28 19:28:49;;;;;;;181.50;109.35;;;;;;;25.51;43.74;101436.38;4996544;28;20033;-47
2023/04/28 19:31:17;;;;;;;193.48;113.72;;;;;;;25.51;43.43;101439.00;5014145;28;20056;-48
2023/04/28 19:33:46;;;;;;;172.50;103.25;;;;;;;25.43;43.74;101438.88;5013839;28;20074;-50
2023/04/28 19:36:15;;;;;;;167.63;103.93;;;;;;;25.44;43.53;101448.53;5013627;28;20030;-49
2023/04/28 19:38:43;;;;;;;163.52;97.50;;;;;;;25.45;43.32;101448.53;5013737;28;20029;-47
2023/04/28 19:41:12;;;;;;;154.15;91.25;;;;;;;25.45;43.52;101447.69;4996446;28;20100;-50
2023/04/28 19:43:40;;;;;;;150.32;86.93;;;;;;;25.42;43.17;101460.75;5013292;28;20026;-48
2023/04/28 19:46:11;;;;;;;146.38;86.28;;;;;;;25.44;43.26;101462.53;5013854;28;20106;-51
2023/04/28 19:48:40;;;;;;;132.95;77.43;;;;;;;25.43;43.01;101454.66;5013326;28;20036;-47
2023/04/28 19:51:09;;;;;;;137.32;79.32;;;;;;;25.47;42.96;101462.59;4996089;28;20030;-49
2023/04/28 19:53:39;;;;;;;128.30;73.15;;;;;;;25.45;43.16;101468.69;5013687;28;20252;-49
2023/04/28 19:56:09;;;;;;;118.57;70.07;;;;;;;25.44;43.06;101466.94;5013174;28;20038;-48
2023/04/28 19:58:37;;;;;;;119.32;70.80;;;;;;;25.39;42.94;101472.09;5013057;28;20507;-48
2023/04/28 20:01:07;;;;;;;109.82;65.60;;;;;;;25.37;43.23;101472.91;5013674;28;20041;-49
2023/04/28 20:03:36;;;;;;;116.82;67.10;;;;;;;25.40;43.06;101480.81;5013345;28;20022;-47
2023/04/28 20:06:04;;;;;;;107.53;64.85;;;;;;;25.39;42.75;101479.06;5013259;28;20054;-49
2023/04/28 20:08:32;;;;;;;102.80;58.28;;;;;;;25.40;42.86;101478.19;5011736;28;20040;-48
2023/04/28 20:11:01;;;;;;;101.32;57.78;;;;;;;25.37;42.98;101483.41;4979738;28;20064;-48
2023/04/28 20:13:29;;;;;;;92.18;53.50;;;;;;;25.39;42.84;101489.56;4995672;28;20029;-48
2023/04/28 20:15:58;;;;;;;93.82;54.13;;;;;;;25.44;42.80;101483.56;5012912;28;20091;-47
2023/04/28 20:18:26;;;;;;;89.93;51.70;;;;;;;25.42;42.75;101487.03;5013314;28;20391;-48
2023/04/28 20:20:54;;;;;;;96.20;52.92;;;;;;;25.43;42.51;101489.66;5013315;28;20028;-48
2023/04/28 20:23:23;;;;;;;88.05;49.45;;;;;;;25.40;42.58;101492.19;4995592;28;20033;-49
2023/04/28 20:25:52;;;;;;;83.65;47.70;;;;;;;25.40;42.52;101500.06;4995430;28;20089;-50
2023/04/28 20:28:20;;;;;;;86.13;47.70;;;;;;;25.42;42.52;101508.03;5012292;28;20081;-47
2023/04/28 20:30:48;;;;;;;74.75;44.00;;;;;;;25.41;42.49;101514.13;5013104;28;20513;-48
2023/04/28 20:33:17;;;;;;;71.95;42.13;;;;;;;25.38;42.28;101521.94;5013212;28;20029;-47
2023/04/28 20:35:46;;;;;;;70.53;39.40;;;;;;;25.43;42.36;101517.69;5012896;28;20029;-48
2023/04/28 20:38:14;;;;;;;72.47;38.80;;;;;;;25.38;42.30;101519.31;5013315;28;20050;-47
2023/04/28 20:40:43;;;;;;;73.97;38.85;;;;;;;25.40;42.34;101522.84;5011699;28;20400;-48
2023/04/28 20:43:10;;;;;;;64.93;37.72;;;;;;;25.42;42.10;101524.66;5012613;28;20472;-48
